Time;durP1;ratioP1;P1;durP2;ratioP2;P2;SDS_P1;SDS_P2;PMS_P1;PMS_P2;Temp;Humidity;BMP_temperature;BMP_pressure;BME280_temperature;BME280_humidity;BME280_pressure;Samples;Min_cycle;Max_cycle;Signal;HPM_P1;HPM_P2
2022/03/13 00:02:04;;;;;;;;;;;10.90;99.90;;;;;;4933426;29;20283;-87
2022/03/13 00:04:30;;;;;;;;;;;10.90;99.90;;;;;;4935188;29;19958;-87
2022/03/13 00:06:56;;;;;;;;;;;10.90;99.90;;;;;;4935244;29;19917;-87
2022/03/13 00:09:22;;;;;;;;;;;10.90;99.90;;;;;;4935082;29;19918;-87
2022/03/13 00:11:53;;;;;;;;;;;11.00;99.90;;;;;;4918168;29;19949;-87
2022/03/13 00:14:20;;;;;;;;;;;11.00;99.90;;;;;;4917627;29;20430;-87
2022/03/13 00:16:46;;;;;;;;;;;11.00;99.90;;;;;;4917857;29;20397;-87
2022/03/13 00:19:11;;;;;;;;;;;11.00;99.90;;;;;;4917856;29;19919;-87
2022/03/13 00:21:38;;;;;;;;;;;10.90;99.90;;;;;;4934208;29;19917;-87
2022/03/13 00:24:03;;;;;;;;;;;11.00;99.90;;;;;;4932989;29;19918;-87
2022/03/13 00:26:29;;;;;;;;;;;11.00;99.90;;;;;;4934669;29;19911;-88
2022/03/13 00:28:56;;;;;;;;;;;10.90;99.90;;;;;;4934508;29;19918;-87
2022/03/13 00:31:21;;;;;;;;;;;10.90;99.90;;;;;;4917836;29;20443;-87
2022/03/13 00:33:47;;;;;;;;;;;11.00;99.90;;;;;;4934816;29;20006;-87
2022/03/13 00:36:12;;;;;;;;;;;11.00;99.90;;;;;;4917890;29;19911;-87
2022/03/13 00:38:38;;;;;;;;;;;11.00;99.90;;;;;;4917659;29;19934;-87
2022/03/13 00:41:03;;;;;;;;;;;10.90;99.90;;;;;;4917190;29;20037;-87
2022/03/13 00:43:29;;;;;;;;;;;11.00;99.90;;;;;;4933047;29;19919;-87
2022/03/13 00:45:55;;;;;;;;;;;10.90;99.90;;;;;;4933701;29;19914;-87
2022/03/13 00:48:21;;;;;;;;;;;10.90;99.90;;;;;;4916975;29;19911;-87
2022/03/13 00:50:47;;;;;;;;;;;10.80;99.90;;;;;;4933819;29;19943;-86
2022/03/13 00:53:13;;;;;;;;;;;10.80;99.90;;;;;;4933914;29;19911;-87
2022/03/13 00:55:39;;;;;;;;;;;10.80;99.90;;;;;;4916886;29;19923;-87
2022/03/13 00:58:05;;;;;;;;;;;10.80;99.90;;;;;;4933878;29;19917;-87
2022/03/13 01:00:30;;;;;;;;;;;10.70;99.90;;;;;;4933650;29;19915;-87
2022/03/13 01:02:56;;;;;;;;;;;10.80;99.90;;;;;;4916716;29;20014;-87
2022/03/13 01:05:23;;;;;;;;;;;10.80;99.90;;;;;;4932730;29;20380;-87
2022/03/13 01:07:49;;;;;;;;;;;10.80;99.90;;;;;;4933931;29;19911;-87
2022/03/13 01:10:15;;;;;;;;;;;10.70;99.90;;;;;;4916755;29;19918;-87
2022/03/13 01:12:40;;;;;;;;;;;10.70;99.90;;;;;;4933829;29;19915;-87
2022/03/13 01:15:07;;;;;;;;;;;10.70;99.90;;;;;;4933421;29;19918;-87
2022/03/13 01:17:33;;;;;;;;;;;10.70;99.90;;;;;;4916886;29;19922;-87
2022/03/13 01:19:58;;;;;;;;;;;10.70;99.90;;;;;;4932088;29;19915;-87
2022/03/13 01:22:24;;;;;;;;;;;10.70;99.90;;;;;;4934022;29;19926;-86
2022/03/13 01:24:51;;;;;;;;;;;10.70;99.90;;;;;;4932609;29;19911;-85
2022/03/13 01:27:17;;;;;;;;;;;10.70;99.90;;;;;;4927402;29;19958;-86
2022/03/13 01:29:44;;;;;;;;;;;10.70;99.90;;;;;;4909629;29;19911;-86
2022/03/13 01:32:10;;;;;;;;;;;10.80;99.90;;;;;;4931822;29;20257;-86
2022/03/13 01:34:42;;;;;;;;;;;10.80;99.90;;;;;;4932356;29;19918;-86
2022/03/13 01:37:13;;;;;;;;;;;10.80;99.90;;;;;;4916279;29;20404;-86
2022/03/13 01:39:39;;;;;;;;;;;10.80;99.90;;;;;;4933531;29;19911;-85
2022/03/13 01:42:05;;;;;;;;;;;10.80;99.90;;;;;;4933198;29;19914;-86
2022/03/13 01:44:31;;;;;;;;;;;10.80;99.90;;;;;;4926805;29;20327;-86
2022/03/13 01:46:57;;;;;;;;;;;10.90;99.90;;;;;;4933156;29;19914;-86
2022/03/13 01:49:23;;;;;;;;;;;10.90;99.90;;;;;;4932216;29;19921;-86
2022/03/13 01:51:49;;;;;;;;;;;10.90;99.90;;;;;;4916333;29;20156;-86
2022/03/13 01:54:15;;;;;;;;;;;10.90;99.90;;;;;;4933714;29;20214;-85
2022/03/13 01:56:41;;;;;;;;;;;10.90;99.90;;;;;;4933150;29;20013;-86
2022/03/13 01:59:07;;;;;;;;;;;11.00;99.90;;;;;;4933495;29;19971;-86
2022/03/13 02:01:33;;;;;;;;;;;10.90;99.90;;;;;;4933259;29;19918;-86
2022/03/13 02:03:59;;;;;;;;;;;10.90;99.90;;;;;;4933161;29;19915;-86
2022/03/13 02:06:24;;;;;;;;;;;10.90;99.90;;;;;;4931705;29;19934;-86
2022/03/13 02:08:50;;;;;;;;;;;10.90;99.90;;;;;;4932068;29;19911;-86
2022/03/13 02:11:17;;;;;;;;;;;10.90;99.90;;;;;;4916332;29;19915;-86
2022/03/13 02:13:43;;;;;;;;;;;10.90;99.90;;;;;;4933336;29;20041;-86
2022/03/13 02:16:09;;;;;;;;;;;10.80;99.90;;;;;;4933174;29;20491;-86
2022/03/13 02:18:35;;;;;;;;;;;10.70;99.90;;;;;;4933331;29;19966;-86
2022/03/13 02:21:00;;;;;;;;;;;10.60;99.90;;;;;;4916020;29;20411;-86
2022/03/13 02:23:28;;;;;;;;;;;10.50;99.90;;;;;;4933541;29;20451;-86
2022/03/13 02:25:55;;;;;;;;;;;10.40;99.90;;;;;;4932977;29;19918;-86
2022/03/13 02:28:22;;;;;;;;;;;10.40;99.90;;;;;;4932997;29;19911;-86
2022/03/13 02:30:49;;;;;;;;;;;10.30;99.90;;;;;;4932751;29;19918;-87
2022/03/13 02:33:17;;;;;;;;;;;10.30;99.90;;;;;;4916397;29;19918;-87
2022/03/13 02:35:42;;;;;;;;;;;10.20;99.90;;;;;;4933450;29;19919;-88
2022/03/13 02:38:08;;;;;;;;;;;10.20;99.90;;;;;;4933430;29;19910;-91
2022/03/13 02:40:34;;;;;;;;;;;10.20;99.90;;;;;;4934026;29;20376;-94
2022/03/13 02:42:59;;;;;;;;;;;10.20;99.90;;;;;;4916862;29;19919;-91
2022/03/13 02:45:33;;;;;;;;;;;10.20;99.90;;;;;;4919685;29;19977;-92
2022/03/13 02:47:59;;;;;;;;;;;10.20;99.90;;;;;;4920059;29;19917;-91
2022/03/13 02:50:25;;;;;;;;;;;10.10;99.90;;;;;;4920338;29;19911;-90
2022/03/13 02:52:51;;;;;;;;;;;10.10;99.90;;;;;;4920992;29;19917;-91
2022/03/13 02:55:17;;;;;;;;;;;10.10;99.90;;;;;;4922137;29;19997;-91
2022/03/13 02:57:42;;;;;;;;;;;10.20;99.90;;;;;;4924416;29;19919;-90
2022/03/13 03:00:08;;;;;;;;;;;10.10;99.90;;;;;;4934105;29;19918;-91
2022/03/13 03:02:35;;;;;;;;;;;10.10;99.90;;;;;;4940343;29;20163;-91
2022/03/13 03:05:04;;;;;;;;;;;10.10;99.90;;;;;;4921904;29;19910;-91
2022/03/13 03:07:30;;;;;;;;;;;10.10;99.90;;;;;;4919991;29;19922;-91
2022/03/13 03:09:56;;;;;;;;;;;10.10;99.90;;;;;;4935666;29;19911;-90
2022/03/13 03:12:21;;;;;;;;;;;10.10;99.90;;;;;;4919682;29;19954;-91
2022/03/13 03:14:47;;;;;;;;;;;10.10;99.90;;;;;;4936674;29;20376;-90
2022/03/13 03:17:13;;;;;;;;;;;10.10;99.90;;;;;;4935647;29;19915;-91
2022/03/13 03:19:39;;;;;;;;;;;10.10;99.90;;;;;;4919769;29;20003;-91
2022/03/13 03:22:04;;;;;;;;;;;10.10;99.90;;;;;;4919571;29;20003;-91
2022/03/13 03:24:30;;;;;;;;;;;10.20;99.90;;;;;;4919962;29;19918;-91
2022/03/13 03:26:56;;;;;;;;;;;10.10;99.90;;;;;;4919631;29;19911;-91
2022/03/13 03:29:26;;;;;;;;;;;10.20;99.90;;;;;;4919230;29;19921;-91
2022/03/13 03:31:51;;;;;;;;;;;10.20;99.90;;;;;;4919608;29;19970;-91
2022/03/13 03:34:19;;;;;;;;;;;10.20;99.90;;;;;;4935395;29;20467;-92
2022/03/13 03:36:49;;;;;;;;;;;10.20;99.90;;;;;;4919983;29;19911;-92
2022/03/13 03:39:16;;;;;;;;;;;10.20;99.90;;;;;;4919226;29;20005;-91
2022/03/13 03:41:43;;;;;;;;;;;10.20;99.90;;;;;;4919745;29;19927;-92
2022/03/13 03:44:09;;;;;;;;;;;10.20;99.90;;;;;;4919847;29;20394;-92
2022/03/13 03:46:34;;;;;;;;;;;10.20;99.90;;;;;;4919770;29;19911;-93
2022/03/13 03:49:03;;;;;;;;;;;10.20;99.90;;;;;;4919609;29;20265;-92
2022/03/13 03:51:29;;;;;;;;;;;10.20;99.90;;;;;;4919622;29;20295;-92
2022/03/13 03:53:55;;;;;;;;;;;10.20;99.90;;;;;;4919868;29;19915;-92
2022/03/13 03:56:23;;;;;;;;;;;10.30;99.90;;;;;;4935200;29;20384;-91
2022/03/13 03:58:49;;;;;;;;;;;10.20;99.90;;;;;;4919640;29;19911;-92
2022/03/13 04:01:15;;;;;;;;;;;10.30;99.90;;;;;;4935316;29;20407;-92
2022/03/13 04:03:44;;;;;;;;;;;10.30;99.90;;;;;;4919708;29;19922;-91
2022/03/13 04:06:09;;;;;;;;;;;10.30;99.90;;;;;;4919363;29;19910;-91
2022/03/13 04:08:35;;;;;;;;;;;10.30;99.90;;;;;;4918984;29;19925;-91
2022/03/13 04:11:01;;;;;;;;;;;10.30;99.90;;;;;;4918931;29;19910;-91
2022/03/13 04:13:28;;;;;;;;;;;10.40;99.90;;;;;;4919062;29;19910;-94
2022/03/13 04:15:57;;;;;;;;;;;10.30;99.90;;;;;;4918729;29;20001;-90
2022/03/13 04:18:22;;;;;;;;;;;10.30;99.90;;;;;;4919359;29;19915;-90
2022/03/13 04:20:48;;;;;;;;;;;10.40;99.90;;;;;;4936115;29;19918;-91
2022/03/13 04:23:14;;;;;;;;;;;10.40;99.90;;;;;;4919256;29;19919;-91
2022/03/13 04:25:39;;;;;;;;;;;10.40;99.90;;;;;;4935408;29;20387;-90
2022/03/13 04:28:10;;;;;;;;;;;10.40;99.90;;;;;;4935029;29;19911;-90
2022/03/13 04:30:38;;;;;;;;;;;10.40;99.90;;;;;;4934796;29;19926;-91
2022/03/13 04:33:04;;;;;;;;;;;10.40;99.90;;;;;;4918418;29;19914;-91
2022/03/13 04:35:30;;;;;;;;;;;10.40;99.90;;;;;;4934041;29;19914;-91
2022/03/13 04:37:55;;;;;;;;;;;10.50;99.90;;;;;;4935319;29;19922;-90
2022/03/13 04:40:21;;;;;;;;;;;10.40;99.90;;;;;;4918283;29;19918;-90
2022/03/13 04:42:46;;;;;;;;;;;10.50;99.90;;;;;;4918167;29;19919;-90
2022/03/13 04:45:13;;;;;;;;;;;10.50;99.90;;;;;;4934976;29;19957;-90
2022/03/13 04:47:38;;;;;;;;;;;10.40;99.90;;;;;;4933805;29;20386;-90
2022/03/13 04:50:04;;;;;;;;;;;10.50;99.90;;;;;;4917683;29;19911;-90
2022/03/13 04:52:30;;;;;;;;;;;10.50;99.90;;;;;;4934585;29;20399;-90
2022/03/13 04:54:55;;;;;;;;;;;10.50;99.90;;;;;;4939816;29;19958;-90
2022/03/13 04:57:21;;;;;;;;;;;10.50;99.90;;;;;;4934024;29;20352;-91
2022/03/13 04:59:47;;;;;;;;;;;10.50;99.90;;;;;;4918088;29;20571;-91
2022/03/13 05:02:12;;;;;;;;;;;10.40;99.90;;;;;;4934247;29;19965;-94
2022/03/13 05:04:47;;;;;;;;;;;10.30;99.90;;;;;;4934316;29;19915;-92
2022/03/13 05:07:22;;;;;;;;;;;10.20;99.90;;;;;;4918560;29;20363;-91
2022/03/13 05:10:04;;;;;;;;;;;10.20;99.90;;;;;;4934876;29;20400;-92
2022/03/13 05:12:29;;;;;;;;;;;10.20;99.90;;;;;;4912113;29;19911;-92
2022/03/13 05:14:55;;;;;;;;;;;10.20;99.90;;;;;;4933686;29;19915;-93
2022/03/13 05:17:21;;;;;;;;;;;10.10;99.90;;;;;;4917876;29;19915;-91
2022/03/13 05:19:47;;;;;;;;;;;10.20;99.90;;;;;;4934612;29;20387;-91
2022/03/13 05:22:12;;;;;;;;;;;10.10;99.90;;;;;;4938690;29;19914;-91
2022/03/13 05:24:38;;;;;;;;;;;10.10;99.90;;;;;;4940715;29;19974;-90
2022/03/13 05:27:03;;;;;;;;;;;10.10;99.90;;;;;;4934550;29;20261;-92
2022/03/13 05:29:29;;;;;;;;;;;10.00;99.90;;;;;;4932765;29;19911;-90
2022/03/13 05:31:55;;;;;;;;;;;10.10;99.90;;;;;;4917009;29;19910;-91
2022/03/13 05:34:20;;;;;;;;;;;10.10;99.90;;;;;;4917460;29;19917;-90
2022/03/13 05:36:46;;;;;;;;;;;10.10;99.90;;;;;;4933352;29;20479;-91
2022/03/13 05:39:12;;;;;;;;;;;10.00;99.90;;;;;;4932996;29;20497;-91
2022/03/13 05:41:40;;;;;;;;;;;10.00;99.90;;;;;;4917270;29;20148;-91
2022/03/13 05:44:09;;;;;;;;;;;10.00;99.90;;;;;;4932871;29;20410;-91
2022/03/13 05:46:34;;;;;;;;;;;10.00;99.90;;;;;;4917803;29;19922;-90
2022/03/13 05:49:03;;;;;;;;;;;10.00;99.90;;;;;;4934570;29;19911;-91
2022/03/13 05:51:35;;;;;;;;;;;10.00;99.90;;;;;;4918210;29;19918;-94
2022/03/13 05:54:06;;;;;;;;;;;9.90;99.90;;;;;;4919563;29;19911;-95
2022/03/13 05:56:34;;;;;;;;;;;9.90;99.90;;;;;;4920205;29;19986;-91
2022/03/13 05:59:00;;;;;;;;;;;9.80;99.90;;;;;;4904878;29;19922;-94
2022/03/13 06:01:28;;;;;;;;;;;9.70;99.90;;;;;;4938112;29;19962;-91
2022/03/13 06:03:54;;;;;;;;;;;9.60;99.90;;;;;;4917015;29;20513;-95
2022/03/13 06:06:20;;;;;;;;;;;9.50;99.90;;;;;;4917103;29;19911;-90
2022/03/13 06:08:46;;;;;;;;;;;9.50;99.90;;;;;;4916875;29;20001;-90
2022/03/13 06:11:12;;;;;;;;;;;9.50;99.90;;;;;;4933975;29;19915;-93
2022/03/13 06:13:38;;;;;;;;;;;9.50;99.90;;;;;;4932538;29;19918;-91
2022/03/13 06:16:04;;;;;;;;;;;9.40;99.90;;;;;;4932547;29;19915;-90
2022/03/13 06:18:33;;;;;;;;;;;9.40;99.90;;;;;;4933170;29;20325;-90
2022/03/13 06:20:59;;;;;;;;;;;9.30;99.90;;;;;;4920121;29;19911;-91
2022/03/13 06:23:25;;;;;;;;;;;9.30;99.90;;;;;;4920533;29;20056;-90
2022/03/13 06:25:51;;;;;;;;;;;9.30;99.90;;;;;;4920294;29;19957;-90
2022/03/13 06:28:19;;;;;;;;;;;9.10;99.90;;;;;;4937381;29;19910;-90
2022/03/13 06:30:44;;;;;;;;;;;9.10;99.90;;;;;;4919875;29;19915;-90
2022/03/13 06:33:10;;;;;;;;;;;9.10;99.90;;;;;;4920296;29;20280;-90
2022/03/13 06:35:36;;;;;;;;;;;9.10;99.90;;;;;;4935636;29;20256;-90
2022/03/13 06:38:01;;;;;;;;;;;9.10;99.90;;;;;;4919583;29;20268;-90
2022/03/13 06:40:27;;;;;;;;;;;9.20;99.90;;;;;;4929283;29;20249;-88
2022/03/13 06:42:53;;;;;;;;;;;9.20;99.90;;;;;;4935980;29;19926;-88
2022/03/13 06:45:19;;;;;;;;;;;9.30;99.90;;;;;;4918974;29;19914;-86
2022/03/13 06:47:46;;;;;;;;;;;9.40;99.90;;;;;;4936908;29;20303;-88
2022/03/13 06:50:14;;;;;;;;;;;9.30;99.90;;;;;;4936226;29;19911;-89
2022/03/13 06:52:39;;;;;;;;;;;9.30;99.90;;;;;;4936075;29;19910;-88
2022/03/13 06:55:05;;;;;;;;;;;9.40;99.90;;;;;;4935782;29;19966;-88
2022/03/13 06:57:31;;;;;;;;;;;9.40;99.90;;;;;;4936142;29;19911;-89
2022/03/13 07:00:00;;;;;;;;;;;9.40;99.90;;;;;;4918877;29;19917;-90
2022/03/13 07:02:26;;;;;;;;;;;9.40;99.90;;;;;;4935066;29;19978;-91
2022/03/13 07:04:51;;;;;;;;;;;9.40;99.90;;;;;;4935351;29;19956;-89
2022/03/13 07:07:17;;;;;;;;;;;9.40;99.90;;;;;;4937033;29;19993;-90
2022/03/13 07:09:43;;;;;;;;;;;9.40;99.90;;;;;;4936014;29;19918;-89
2022/03/13 07:12:12;;;;;;;;;;;9.30;99.90;;;;;;4920362;29;20396;-93
2022/03/13 07:14:46;;;;;;;;;;;9.30;99.90;;;;;;4919778;29;19954;-93
2022/03/13 07:17:29;;;;;;;;;;;9.30;99.90;;;;;;4946316;28;19915;-92
2022/03/13 07:19:56;;;;;;;;;;;9.40;99.90;;;;;;4920790;29;20009;-92
2022/03/13 07:22:24;;;;;;;;;;;9.30;99.90;;;;;;4940646;29;19922;-91
2022/03/13 07:24:49;;;;;;;;;;;9.20;99.90;;;;;;4939962;29;20403;-92
2022/03/13 07:27:15;;;;;;;;;;;9.10;99.90;;;;;;4927984;29;20019;-91
2022/03/13 07:29:41;;;;;;;;;;;9.10;99.90;;;;;;4926789;29;19915;-92
2022/03/13 07:32:07;;;;;;;;;;;9.20;99.90;;;;;;4918972;29;19954;-90
2022/03/13 07:34:33;;;;;;;;;;;9.20;99.90;;;;;;4944188;29;20367;-96
2022/03/13 07:36:58;;;;;;;;;;;9.10;99.90;;;;;;4926389;29;19918;-91
2022/03/13 07:39:31;;;;;;;;;;;9.00;99.90;;;;;;4940737;29;19911;-92
2022/03/13 07:41:59;;;;;;;;;;;9.10;99.90;;;;;;4929255;29;20368;-91
2022/03/13 07:44:26;;;;;;;;;;;9.20;99.90;;;;;;4947028;28;19950;-92
2022/03/13 07:46:52;;;;;;;;;;;9.20;99.90;;;;;;4926483;29;19918;-91
2022/03/13 07:49:18;;;;;;;;;;;9.30;99.90;;;;;;4941312;29;19910;-91
2022/03/13 07:51:43;;;;;;;;;;;9.30;99.90;;;;;;4938773;29;19915;-92
2022/03/13 07:54:10;;;;;;;;;;;9.30;99.90;;;;;;4941112;29;19895;-92
2022/03/13 07:56:37;;;;;;;;;;;9.30;99.90;;;;;;4924291;29;19907;-92
2022/03/13 07:59:02;;;;;;;;;;;9.30;99.90;;;;;;4921519;29;19911;-95
2022/03/13 08:01:28;;;;;;;;;;;9.30;99.90;;;;;;4945524;29;19899;-92
2022/03/13 08:03:54;;;;;;;;;;;9.30;99.90;;;;;;4940083;28;19978;-90
2022/03/13 08:06:19;;;;;;;;;;;9.20;99.90;;;;;;4939785;28;19934;-90
2022/03/13 08:08:45;;;;;;;;;;;9.30;99.90;;;;;;4920942;29;19910;-90
2022/03/13 08:11:10;;;;;;;;;;;9.20;99.90;;;;;;4940513;28;19915;-91
2022/03/13 08:13:36;;;;;;;;;;;9.10;99.90;;;;;;4922180;28;19895;-92
2022/03/13 08:16:05;;;;;;;;;;;9.00;99.90;;;;;;4945429;28;19965;-91
2022/03/13 08:18:35;;;;;;;;;;;9.00;99.90;;;;;;4938960;28;20289;-90
2022/03/13 08:21:01;;;;;;;;;;;9.00;99.90;;;;;;4935266;29;20372;-90
2022/03/13 08:23:34;;;;;;;;;;;9.10;99.90;;;;;;4935918;29;20484;-91
2022/03/13 08:26:00;;;;;;;;;;;9.10;99.90;;;;;;4938173;28;19895;-90
2022/03/13 08:28:27;;;;;;;;;;;9.10;99.90;;;;;;4941093;28;19915;-91
2022/03/13 08:30:52;;;;;;;;;;;9.00;99.90;;;;;;4935934;28;19915;-90
2022/03/13 08:33:18;;;;;;;;;;;9.00;99.90;;;;;;4934386;29;19926;-90
2022/03/13 08:35:44;;;;;;;;;;;8.90;99.90;;;;;;4936367;29;19918;-90
2022/03/13 08:38:10;;;;;;;;;;;8.90;99.90;;;;;;4937127;28;19915;-91
2022/03/13 08:40:35;;;;;;;;;;;8.90;99.90;;;;;;4930187;29;19907;-90
2022/03/13 08:43:01;;;;;;;;;;;9.00;99.90;;;;;;4938225;28;19938;-90
2022/03/13 08:45:27;;;;;;;;;;;8.90;99.90;;;;;;4921351;29;20036;-91
2022/03/13 08:47:52;;;;;;;;;;;9.00;99.90;;;;;;4925264;29;20009;-91
2022/03/13 08:50:20;;;;;;;;;;;8.90;99.90;;;;;;4932806;29;20009;-91
2022/03/13 08:52:46;;;;;;;;;;;8.90;99.90;;;;;;4936211;29;19911;-91
2022/03/13 08:55:17;;;;;;;;;;;9.00;99.90;;;;;;4935888;29;19922;-90
2022/03/13 08:57:43;;;;;;;;;;;9.10;99.90;;;;;;4935775;29;20304;-89
2022/03/13 09:00:14;;;;;;;;;;;9.10;99.90;;;;;;4934652;29;19990;-87
2022/03/13 09:02:39;;;;;;;;;;;9.10;99.90;;;;;;4918358;29;20423;-89
2022/03/13 09:05:06;;;;;;;;;;;9.00;99.90;;;;;;4939503;29;19950;-89
2022/03/13 09:07:32;;;;;;;;;;;9.00;99.90;;;;;;4939333;29;20218;-87
2022/03/13 09:09:58;;;;;;;;;;;9.00;99.90;;;;;;4919546;29;19911;-87
2022/03/13 09:12:23;;;;;;;;;;;9.00;99.90;;;;;;4921324;29;19911;-88
2022/03/13 09:14:49;;;;;;;;;;;9.00;99.90;;;;;;4940992;29;19922;-91
2022/03/13 09:17:17;;;;;;;;;;;9.10;99.90;;;;;;4946098;29;19921;-91
2022/03/13 09:19:43;;;;;;;;;;;9.10;99.90;;;;;;4932322;29;19922;-90
2022/03/13 09:22:08;;;;;;;;;;;9.20;99.90;;;;;;4954106;29;19914;-90
2022/03/13 09:24:34;;;;;;;;;;;9.20;99.90;;;;;;4954984;29;19911;-91
2022/03/13 09:27:01;;;;;;;;;;;9.20;99.90;;;;;;4956396;29;19914;-93
2022/03/13 09:29:26;;;;;;;;;;;9.30;99.90;;;;;;4953371;29;19906;-95
2022/03/13 09:31:54;;;;;;;;;;;9.40;99.90;;;;;;4956384;29;19909;-92
2022/03/13 09:34:20;;;;;;;;;;;9.60;99.90;;;;;;4941002;29;19911;-93
2022/03/13 09:36:47;;;;;;;;;;;9.60;99.90;;;;;;4939283;29;19917;-92
2022/03/13 09:39:16;;;;;;;;;;;9.70;99.90;;;;;;4940468;29;19946;-92
2022/03/13 09:41:42;;;;;;;;;;;9.80;99.90;;;;;;4953056;29;20439;-93
2022/03/13 09:44:08;;;;;;;;;;;9.90;99.90;;;;;;4951474;29;20011;-93
2022/03/13 09:46:39;;;;;;;;;;;10.00;99.90;;;;;;4939149;29;19899;-94
2022/03/13 10:21:27;;;;;;;;;;;11.00;99.90;;;;;;5786859;23;19941;-94
2022/03/13 10:23:53;;;;;;;;;;;11.00;99.90;;;;;;4955492;29;19922;-83
2022/03/13 10:26:29;;;;;;;;;;;10.90;99.90;;;;;;4956141;28;20295;-83
2022/03/13 10:28:54;;;;;;;;;;;10.40;99.90;;;;;;4953827;28;20268;-83
2022/03/13 10:31:20;;;;;;;;;;;9.70;99.90;;;;;;4955685;29;19933;-84
2022/03/13 10:33:45;;;;;;;;;;;9.50;99.90;;;;;;4955881;29;19934;-84
2022/03/13 10:36:18;;;;;;;;;;;9.20;99.90;;;;;;4956128;29;20430;-83
2022/03/13 10:38:44;;;;;;;;;;;9.10;99.90;;;;;;4955788;29;19911;-82
2022/03/13 10:41:13;;;;;;;;;;;9.10;99.90;;;;;;4956031;29;20406;-83
2022/03/13 10:43:45;;;;;;;;;;;9.10;99.90;;;;;;4955257;28;19925;-83
2022/03/13 10:46:12;;;;;;;;;;;9.10;99.90;;;;;;4955482;28;19953;-83
2022/03/13 10:48:41;;;;;;;;;;;9.20;99.90;;;;;;4955513;28;19918;-83
2022/03/13 10:51:12;;;;;;;;;;;9.30;99.90;;;;;;4955235;28;19985;-84
2022/03/13 10:53:41;;;;;;;;;;;9.40;99.90;;;;;;4955421;28;19910;-84
2022/03/13 10:56:07;;;;;;;;;;;9.50;99.90;;;;;;4955604;29;19986;-84
2022/03/13 10:58:35;;;;;;;;;;;9.70;99.90;;;;;;4955080;28;19919;-85
2022/03/13 11:01:04;;;;;;;;;;;9.90;99.90;;;;;;4955262;28;20056;-84
2022/03/13 11:03:30;;;;;;;;;;;10.10;99.90;;;;;;4955163;29;20003;-85
2022/03/13 11:05:56;;;;;;;;;;;10.30;99.90;;;;;;4954042;28;19958;-85
2022/03/13 11:08:21;;;;;;;;;;;10.40;99.90;;;;;;4955391;28;19917;-85
2022/03/13 11:10:48;;;;;;;;;;;10.60;99.90;;;;;;4954608;28;19954;-84
2022/03/13 11:13:14;;;;;;;;;;;10.80;99.90;;;;;;4955276;28;19911;-84
2022/03/13 11:15:43;;;;;;;;;;;10.80;99.90;;;;;;4955320;28;19911;-84
2022/03/13 11:18:10;;;;;;;;;;;10.90;99.90;;;;;;4955122;28;19946;-84
2022/03/13 11:20:39;;;;;;;;;;;11.10;99.90;;;;;;4954684;28;19958;-84
2022/03/13 11:23:08;;;;;;;;;;;11.30;99.90;;;;;;4935330;29;19997;-84
2022/03/13 11:25:34;;;;;;;;;;;11.50;99.90;;;;;;4935403;29;20388;-83
2022/03/13 11:28:00;;;;;;;;;;;11.70;99.90;;;;;;4935593;29;19910;-83
2022/03/13 11:30:34;;;;;;;;;;;11.90;99.90;;;;;;4935207;29;20438;-83
2022/03/13 11:33:02;;;;;;;;;;;12.10;99.90;;;;;;4935531;29;19918;-83
2022/03/13 11:35:30;;;;;;;;;;;12.20;99.90;;;;;;4934430;29;19918;-83
2022/03/13 11:38:15;;;;;;;;;;;12.40;99.90;;;;;;4935559;29;19934;-83
2022/03/13 11:40:40;;;;;;;;;;;12.60;99.90;;;;;;4935384;29;20396;-83
2022/03/13 11:43:07;;;;;;;;;;;12.70;99.90;;;;;;4935008;29;20041;-83
2022/03/13 11:45:34;;;;;;;;;;;12.70;99.90;;;;;;4934994;29;19918;-83
2022/03/13 11:48:03;;;;;;;;;;;12.60;99.90;;;;;;4918015;29;19911;-83
2022/03/13 11:50:47;;;;;;;;;;;12.50;99.90;;;;;;4934620;29;19917;-83
2022/03/13 11:53:16;;;;;;;;;;;12.40;99.90;;;;;;4934021;29;19914;-83
2022/03/13 11:56:02;;;;;;;;;;;12.20;99.90;;;;;;4935188;29;20118;-83
2022/03/13 11:58:46;;;;;;;;;;;12.20;99.90;;;;;;4934750;29;19917;-83
2022/03/13 12:01:32;;;;;;;;;;;12.20;99.90;;;;;;4934863;29;19914;-83
2022/03/13 12:04:15;;;;;;;;;;;12.20;99.90;;;;;;4934370;29;19943;-83
2022/03/13 12:07:07;;;;;;;;;;;12.30;99.90;;;;;;4935007;29;19934;-82
2022/03/13 12:09:32;;;;;;;;;;;12.40;99.90;;;;;;4931691;29;19919;-83
2022/03/13 12:11:58;;;;;;;;;;;12.60;99.90;;;;;;4934850;29;19911;-83
2022/03/13 12:14:43;;;;;;;;;;;12.70;99.90;;;;;;4934479;29;19911;-83
2022/03/13 12:17:10;;;;;;;;;;;12.70;99.90;;;;;;4933712;29;19918;-83
2022/03/13 12:19:39;;;;;;;;;;;12.80;99.90;;;;;;4934317;29;20370;-83
2022/03/13 12:22:05;;;;;;;;;;;12.90;99.90;;;;;;4945977;29;20402;-82
2022/03/13 12:24:32;;;;;;;;;;;12.80;99.90;;;;;;4953686;28;19998;-83
2022/03/13 12:27:00;;;;;;;;;;;12.80;99.90;;;;;;4953887;28;19911;-84
2022/03/13 12:29:28;;;;;;;;;;;12.70;99.90;;;;;;4952530;29;19956;-87
2022/03/13 12:31:53;;;;;;;;;;;12.60;99.90;;;;;;4951556;28;20339;-88
2022/03/13 12:34:26;;;;;;;;;;;12.60;99.90;;;;;;4953737;28;19997;-87
2022/03/13 12:36:53;;;;;;;;;;;12.70;99.90;;;;;;4953907;29;19918;-88
2022/03/13 12:39:19;;;;;;;;;;;12.70;99.90;;;;;;4954196;28;19957;-88
2022/03/13 12:41:46;;;;;;;;;;;12.70;99.90;;;;;;4954236;28;19997;-87
2022/03/13 12:44:16;;;;;;;;;;;12.90;99.90;;;;;;4953514;28;19930;-87
2022/03/13 12:46:42;;;;;;;;;;;13.20;99.90;;;;;;4952248;28;20390;-87
2022/03/13 12:49:12;;;;;;;;;;;13.30;99.90;;;;;;4953500;28;19910;-88
2022/03/13 12:51:41;;;;;;;;;;;13.20;99.90;;;;;;4953583;28;19915;-89
2022/03/13 12:54:10;;;;;;;;;;;13.10;99.90;;;;;;4953560;28;19910;-87
2022/03/13 12:56:48;;;;;;;;;;;13.10;99.90;;;;;;4952997;28;20017;-86
2022/03/13 12:59:32;;;;;;;;;;;12.80;99.90;;;;;;4952953;28;20001;-89
2022/03/13 13:02:04;;;;;;;;;;;12.40;99.90;;;;;;4949205;28;20082;-86
2022/03/13 13:04:30;;;;;;;;;;;11.90;99.90;;;;;;4952952;28;19914;-87
2022/03/13 13:06:58;;;;;;;;;;;11.80;99.90;;;;;;4951367;29;23565;-87
2022/03/13 13:09:28;;;;;;;;;;;11.60;99.90;;;;;;4952940;29;19910;-86
2022/03/13 13:11:53;;;;;;;;;;;11.50;99.90;;;;;;4953330;28;19964;-86
2022/03/13 13:14:23;;;;;;;;;;;11.60;99.90;;;;;;4951395;28;20340;-85
2022/03/13 13:16:49;;;;;;;;;;;11.90;99.90;;;;;;4951985;28;20379;-85
2022/03/13 13:19:14;;;;;;;;;;;12.30;99.90;;;;;;4952966;28;19949;-86
2022/03/13 13:21:40;;;;;;;;;;;12.50;99.90;;;;;;4952621;29;20013;-87
2022/03/13 13:24:38;;;;;;;;;;;12.60;99.90;;;;;;4952676;28;19923;-86
2022/03/13 13:27:04;;;;;;;;;;;12.70;99.90;;;;;;4919448;28;19911;-87
2022/03/13 13:29:37;;;;;;;;;;;13.10;99.90;;;;;;4950839;28;19914;-87
2022/03/13 13:32:22;;;;;;;;;;;13.20;99.90;;;;;;4951503;29;20351;-86
2022/03/13 13:35:01;;;;;;;;;;;13.20;99.90;;;;;;4952682;28;20001;-87
2022/03/13 13:37:26;;;;;;;;;;;13.00;99.90;;;;;;4952666;28;19910;-86
2022/03/13 13:40:05;;;;;;;;;;;13.00;99.90;;;;;;4951321;28;19910;-87
2022/03/13 13:42:32;;;;;;;;;;;13.20;99.90;;;;;;4952419;29;20339;-86
2022/03/13 13:45:01;;;;;;;;;;;13.20;99.90;;;;;;4952942;28;20001;-87
2022/03/13 13:47:26;;;;;;;;;;;13.40;99.90;;;;;;4953014;29;19917;-88
2022/03/13 13:49:52;;;;;;;;;;;13.40;99.90;;;;;;4952510;29;19997;-86
2022/03/13 13:52:17;;;;;;;;;;;13.60;99.90;;;;;;4952225;28;20451;-86
2022/03/13 13:54:43;;;;;;;;;;;13.70;99.90;;;;;;4950986;28;19911;-86
2022/03/13 13:57:19;;;;;;;;;;;13.60;99.90;;;;;;4951297;28;19910;-86
2022/03/13 13:59:45;;;;;;;;;;;13.30;99.90;;;;;;4951114;29;19965;-87
2022/03/13 14:02:18;;;;;;;;;;;13.40;99.90;;;;;;4952676;29;19911;-85
2022/03/13 14:04:48;;;;;;;;;;;13.60;99.90;;;;;;4952902;28;19922;-85
2022/03/13 14:07:13;;;;;;;;;;;13.60;99.90;;;;;;4952512;29;20298;-87
2022/03/13 14:09:39;;;;;;;;;;;13.70;99.90;;;;;;4952595;28;19910;-88
2022/03/13 14:12:05;;;;;;;;;;;13.70;99.90;;;;;;4952312;28;19965;-86
2022/03/13 14:14:31;;;;;;;;;;;13.90;99.90;;;;;;4950736;29;19918;-87
2022/03/13 14:16:56;;;;;;;;;;;13.80;99.90;;;;;;4952264;28;19910;-86
2022/03/13 14:19:23;;;;;;;;;;;13.90;99.90;;;;;;4952467;28;19911;-87
2022/03/13 14:21:49;;;;;;;;;;;13.90;99.90;;;;;;4952017;28;20395;-86
2022/03/13 14:24:15;;;;;;;;;;;13.30;99.90;;;;;;4951453;29;19922;-83
2022/03/13 14:26:40;;;;;;;;;;;12.30;99.90;;;;;;4952395;28;19910;-88
2022/03/13 14:29:06;;;;;;;;;;;11.50;99.90;;;;;;4950813;29;19938;-87
2022/03/13 14:31:33;;;;;;;;;;;11.00;99.90;;;;;;4952406;28;19915;-88
2022/03/13 14:33:59;;;;;;;;;;;10.80;99.90;;;;;;4952337;28;19911;-88
2022/03/13 14:36:24;;;;;;;;;;;10.60;99.90;;;;;;4952041;28;19921;-86
2022/03/13 14:38:50;;;;;;;;;;;10.40;99.90;;;;;;4952020;28;19910;-84
2022/03/13 14:41:17;;;;;;;;;;;10.20;99.90;;;;;;4954700;28;20293;-84
2022/03/13 14:43:43;;;;;;;;;;;9.90;99.90;;;;;;4955016;28;19925;-84
2022/03/13 14:46:09;;;;;;;;;;;9.80;99.90;;;;;;4954414;28;19910;-84
2022/03/13 14:48:35;;;;;;;;;;;10.10;99.90;;;;;;4955624;28;19973;-85
2022/03/13 14:51:01;;;;;;;;;;;10.50;99.90;;;;;;4955428;28;20303;-85
2022/03/13 14:53:27;;;;;;;;;;;11.70;99.90;;;;;;4955556;28;19917;-86
2022/03/13 14:55:54;;;;;;;;;;;12.80;99.90;;;;;;4955472;28;19910;-87